sensor_id;sensor_type;location;lat;lon;timestamp;P1;durP1;ratioP1;P2;durP2;ratioP2
70313;SDS011;57725;47.526;18.986;2022-11-21T00:01:55;17.48;;;11.40;;
70313;SDS011;57725;47.526;18.986;2022-11-21T00:04:22;18.15;;;11.43;;
70313;SDS011;57725;47.526;18.986;2022-11-21T00:06:50;17.98;;;11.50;;
70313;SDS011;57725;47.526;18.986;2022-11-21T00:09:16;18.75;;;11.20;;
70313;SDS011;57725;47.526;18.986;2022-11-21T00:11:42;19.88;;;11.25;;
70313;SDS011;57725;47.526;18.986;2022-11-21T00:14:07;16.35;;;10.93;;
70313;SDS011;57725;47.526;18.986;2022-11-21T00:16:33;16.83;;;10.70;;
70313;SDS011;57725;47.526;18.986;2022-11-21T00:18:58;18.83;;;10.80;;
70313;SDS011;57725;47.526;18.986;2022-11-21T00:21:26;18.80;;;10.85;;
70313;SDS011;57725;47.526;18.986;2022-11-21T00:23:53;19.52;;;12.07;;
70313;SDS011;57725;47.526;18.986;2022-11-21T00:26:21;15.13;;;10.20;;
70313;SDS011;57725;47.526;18.986;2022-11-21T00:28:47;16.58;;;10.10;;
70313;SDS011;57725;47.526;18.986;2022-11-21T00:31:19;16.42;;;10.50;;
70313;SDS011;57725;47.526;18.986;2022-11-21T00:33:50;17.33;;;11.00;;
70313;SDS011;57725;47.526;18.986;2022-11-21T00:36:15;15.05;;;10.32;;
70313;SDS011;57725;47.526;18.986;2022-11-21T00:38:40;18.50;;;10.98;;
70313;SDS011;57725;47.526;18.986;2022-11-21T00:41:06;16.40;;;10.30;;
70313;SDS011;57725;47.526;18.986;2022-11-21T00:43:31;17.67;;;10.98;;
70313;SDS011;57725;47.526;18.986;2022-11-21T00:45:59;17.88;;;10.00;;
70313;SDS011;57725;47.526;18.986;2022-11-21T00:48:26;17.23;;;10.90;;
70313;SDS011;57725;47.526;18.986;2022-11-21T00:50:55;17.55;;;10.68;;
70313;SDS011;57725;47.526;18.986;2022-11-21T00:53:23;15.63;;;9.90;;
70313;SDS011;57725;47.526;18.986;2022-11-21T00:55:51;15.15;;;10.07;;
70313;SDS011;57725;47.526;18.986;2022-11-21T00:58:18;15.85;;;10.38;;
70313;SDS011;57725;47.526;18.986;2022-11-21T01:00:46;16.83;;;10.50;;
70313;SDS011;57725;47.526;18.986;2022-11-21T01:03:11;17.75;;;10.60;;
70313;SDS011;57725;47.526;18.986;2022-11-21T01:05:36;17.92;;;10.32;;
70313;SDS011;57725;47.526;18.986;2022-11-21T01:08:10;15.77;;;10.35;;
70313;SDS011;57725;47.526;18.986;2022-11-21T01:10:36;15.65;;;9.82;;
70313;SDS011;57725;47.526;18.986;2022-11-21T01:13:01;16.50;;;10.27;;
70313;SDS011;57725;47.526;18.986;2022-11-21T01:15:27;17.35;;;10.25;;
70313;SDS011;57725;47.526;18.986;2022-11-21T01:17:52;17.02;;;10.35;;
70313;SDS011;57725;47.526;18.986;2022-11-21T01:20:17;14.38;;;9.35;;
70313;SDS011;57725;47.526;18.986;2022-11-21T01:22:43;15.30;;;9.93;;
70313;SDS011;57725;47.526;18.986;2022-11-21T01:25:08;18.90;;;11.05;;
70313;SDS011;57725;47.526;18.986;2022-11-21T01:27:33;15.60;;;9.50;;
70313;SDS011;57725;47.526;18.986;2022-11-21T01:29:59;14.38;;;9.32;;
70313;SDS011;57725;47.526;18.986;2022-11-21T01:32:24;13.75;;;9.55;;
70313;SDS011;57725;47.526;18.986;2022-11-21T01:34:49;14.43;;;9.40;;
70313;SDS011;57725;47.526;18.986;2022-11-21T01:37:17;17.77;;;10.13;;
70313;SDS011;57725;47.526;18.986;2022-11-21T01:39:45;14.80;;;9.85;;
70313;SDS011;57725;47.526;18.986;2022-11-21T01:42:11;13.52;;;8.90;;
70313;SDS011;57725;47.526;18.986;2022-11-21T01:47:12;17.23;;;10.30;;
70313;SDS011;57725;47.526;18.986;2022-11-21T01:49:38;16.00;;;9.63;;
70313;SDS011;57725;47.526;18.986;2022-11-21T01:52:10;14.65;;;9.60;;
70313;SDS011;57725;47.526;18.986;2022-11-21T01:57:19;15.73;;;9.98;;
70313;SDS011;57725;47.526;18.986;2022-11-21T01:59:51;15.80;;;9.55;;
70313;SDS011;57725;47.526;18.986;2022-11-21T02:02:20;15.68;;;9.35;;
70313;SDS011;57725;47.526;18.986;2022-11-21T02:04:47;15.45;;;9.40;;
70313;SDS011;57725;47.526;18.986;2022-11-21T02:07:16;13.98;;;8.90;;
70313;SDS011;57725;47.526;18.986;2022-11-21T02:09:45;15.20;;;9.07;;
70313;SDS011;57725;47.526;18.986;2022-11-21T02:12:17;16.75;;;9.65;;
70313;SDS011;57725;47.526;18.986;2022-11-21T02:14:47;15.05;;;9.80;;
70313;SDS011;57725;47.526;18.986;2022-11-21T02:17:16;13.13;;;8.63;;
70313;SDS011;57725;47.526;18.986;2022-11-21T02:20:00;14.98;;;9.05;;
70313;SDS011;57725;47.526;18.986;2022-11-21T02:25:14;13.00;;;8.10;;
70313;SDS011;57725;47.526;18.986;2022-11-21T02:27:45;14.82;;;8.65;;
70313;SDS011;57725;47.526;18.986;2022-11-21T02:30:13;15.40;;;8.73;;
70313;SDS011;57725;47.526;18.986;2022-11-21T02:32:42;14.25;;;8.48;;
70313;SDS011;57725;47.526;18.986;2022-11-21T02:35:16;14.68;;;8.75;;
70313;SDS011;57725;47.526;18.986;2022-11-21T02:37:46;13.70;;;8.63;;
70313;SDS011;57725;47.526;18.986;2022-11-21T02:40:20;14.88;;;8.73;;
70313;SDS011;57725;47.526;18.986;2022-11-21T02:45:42;14.23;;;8.90;;
70313;SDS011;57725;47.526;18.986;2022-11-21T02:48:09;14.60;;;8.90;;
70313;SDS011;57725;47.526;18.986;2022-11-21T02:50:36;15.18;;;9.25;;
70313;SDS011;57725;47.526;18.986;2022-11-21T02:53:08;12.95;;;8.00;;
70313;SDS011;57725;47.526;18.986;2022-11-21T02:55:36;13.00;;;8.68;;
70313;SDS011;57725;47.526;18.986;2022-11-21T02:58:02;12.88;;;8.43;;
70313;SDS011;57725;47.526;18.986;2022-11-21T03:00:27;13.50;;;8.57;;
70313;SDS011;57725;47.526;18.986;2022-11-21T03:02:55;14.18;;;8.45;;
70313;SDS011;57725;47.526;18.986;2022-11-21T03:05:23;13.25;;;8.63;;
70313;SDS011;57725;47.526;18.986;2022-11-21T03:07:48;14.30;;;9.13;;
70313;SDS011;57725;47.526;18.986;2022-11-21T03:10:16;13.20;;;8.63;;
70313;SDS011;57725;47.526;18.986;2022-11-21T03:12:44;13.35;;;8.18;;
70313;SDS011;57725;47.526;18.986;2022-11-21T03:15:11;13.32;;;8.48;;
70313;SDS011;57725;47.526;18.986;2022-11-21T03:17:37;13.20;;;8.25;;
70313;SDS011;57725;47.526;18.986;2022-11-21T03:20:03;12.10;;;8.15;;
70313;SDS011;57725;47.526;18.986;2022-11-21T03:22:32;14.50;;;8.77;;
70313;SDS011;57725;47.526;18.986;2022-11-21T03:24:58;11.10;;;7.75;;
70313;SDS011;57725;47.526;18.986;2022-11-21T03:27:23;13.80;;;7.95;;
70313;SDS011;57725;47.526;18.986;2022-11-21T03:29:49;13.32;;;7.97;;
70313;SDS011;57725;47.526;18.986;2022-11-21T03:32:14;11.52;;;8.10;;
70313;SDS011;57725;47.526;18.986;2022-11-21T03:34:39;11.30;;;7.72;;
70313;SDS011;57725;47.526;18.986;2022-11-21T03:37:05;12.73;;;7.85;;
70313;SDS011;57725;47.526;18.986;2022-11-21T03:39:30;11.48;;;7.57;;
70313;SDS011;57725;47.526;18.986;2022-11-21T03:41:56;12.93;;;7.88;;
70313;SDS011;57725;47.526;18.986;2022-11-21T03:44:23;14.30;;;8.32;;
70313;SDS011;57725;47.526;18.986;2022-11-21T03:46:51;13.35;;;8.23;;
70313;SDS011;57725;47.526;18.986;2022-11-21T03:49:19;12.88;;;7.63;;
70313;SDS011;57725;47.526;18.986;2022-11-21T03:51:44;12.48;;;8.18;;
70313;SDS011;57725;47.526;18.986;2022-11-21T03:54:10;13.35;;;7.50;;
70313;SDS011;57725;47.526;18.986;2022-11-21T03:56:35;12.82;;;7.45;;
70313;SDS011;57725;47.526;18.986;2022-11-21T03:59:01;12.07;;;7.80;;
70313;SDS011;57725;47.526;18.986;2022-11-21T04:01:27;12.45;;;8.23;;
70313;SDS011;57725;47.526;18.986;2022-11-21T04:03:54;10.90;;;7.90;;
70313;SDS011;57725;47.526;18.986;2022-11-21T04:06:20;13.05;;;7.93;;
70313;SDS011;57725;47.526;18.986;2022-11-21T04:08:46;11.50;;;7.60;;
70313;SDS011;57725;47.526;18.986;2022-11-21T04:11:14;12.48;;;8.05;;
70313;SDS011;57725;47.526;18.986;2022-11-21T04:13:40;13.73;;;8.07;;
70313;SDS011;57725;47.526;18.986;2022-11-21T04:16:08;11.57;;;7.20;;
70313;SDS011;57725;47.526;18.986;2022-11-21T04:18:34;14.20;;;8.38;;
70313;SDS011;57725;47.526;18.986;2022-11-21T04:21:00;11.82;;;7.80;;
70313;SDS011;57725;47.526;18.986;2022-11-21T04:23:29;11.88;;;7.45;;
70313;SDS011;57725;47.526;18.986;2022-11-21T04:26:00;12.30;;;7.35;;
70313;SDS011;57725;47.526;18.986;2022-11-21T04:28:26;13.77;;;7.63;;
70313;SDS011;57725;47.526;18.986;2022-11-21T04:30:51;13.43;;;7.43;;
70313;SDS011;57725;47.526;18.986;2022-11-21T04:33:19;11.13;;;6.97;;
70313;SDS011;57725;47.526;18.986;2022-11-21T04:35:47;12.00;;;7.38;;
70313;SDS011;57725;47.526;18.986;2022-11-21T04:38:15;9.30;;;6.53;;
70313;SDS011;57725;47.526;18.986;2022-11-21T04:40:41;13.93;;;7.35;;
70313;SDS011;57725;47.526;18.986;2022-11-21T04:43:10;12.65;;;7.28;;
70313;SDS011;57725;47.526;18.986;2022-11-21T04:45:35;13.00;;;6.85;;
70313;SDS011;57725;47.526;18.986;2022-11-21T04:48:03;10.77;;;6.70;;
70313;SDS011;57725;47.526;18.986;2022-11-21T04:50:31;10.55;;;6.55;;
70313;SDS011;57725;47.526;18.986;2022-11-21T04:52:57;11.75;;;6.90;;
70313;SDS011;57725;47.526;18.986;2022-11-21T04:55:26;11.10;;;6.70;;
70313;SDS011;57725;47.526;18.986;2022-11-21T04:57:54;11.13;;;7.30;;
70313;SDS011;57725;47.526;18.986;2022-11-21T05:00:22;11.48;;;6.97;;
70313;SDS011;57725;47.526;18.986;2022-11-21T05:02:47;11.38;;;7.00;;
70313;SDS011;57725;47.526;18.986;2022-11-21T05:05:15;12.57;;;7.75;;
70313;SDS011;57725;47.526;18.986;2022-11-21T05:07:40;10.75;;;6.72;;
70313;SDS011;57725;47.526;18.986;2022-11-21T05:10:06;13.10;;;7.57;;
70313;SDS011;57725;47.526;18.986;2022-11-21T05:12:35;12.40;;;6.93;;
70313;SDS011;57725;47.526;18.986;2022-11-21T05:15:38;11.40;;;7.43;;
70313;SDS011;57725;47.526;18.986;2022-11-21T05:18:06;11.73;;;6.97;;
70313;SDS011;57725;47.526;18.986;2022-11-21T05:20:34;11.00;;;6.68;;
70313;SDS011;57725;47.526;18.986;2022-11-21T05:22:59;12.50;;;7.70;;
70313;SDS011;57725;47.526;18.986;2022-11-21T05:25:27;10.95;;;6.35;;
70313;SDS011;57725;47.526;18.986;2022-11-21T05:27:55;12.32;;;7.68;;
70313;SDS011;57725;47.526;18.986;2022-11-21T05:30:20;11.90;;;7.53;;
70313;SDS011;57725;47.526;18.986;2022-11-21T05:32:46;11.05;;;6.72;;
70313;SDS011;57725;47.526;18.986;2022-11-21T05:35:11;11.93;;;7.38;;
70313;SDS011;57725;47.526;18.986;2022-11-21T05:37:37;12.40;;;7.30;;
70313;SDS011;57725;47.526;18.986;2022-11-21T05:40:02;10.85;;;6.82;;
70313;SDS011;57725;47.526;18.986;2022-11-21T05:42:28;10.98;;;7.53;;
70313;SDS011;57725;47.526;18.986;2022-11-21T05:45:12;12.38;;;7.57;;
70313;SDS011;57725;47.526;18.986;2022-11-21T05:47:40;10.50;;;6.35;;
70313;SDS011;57725;47.526;18.986;2022-11-21T05:50:06;13.52;;;8.95;;
70313;SDS011;57725;47.526;18.986;2022-11-21T05:52:31;11.80;;;7.07;;
70313;SDS011;57725;47.526;18.986;2022-11-21T05:54:57;12.27;;;7.43;;
70313;SDS011;57725;47.526;18.986;2022-11-21T05:57:24;11.88;;;7.53;;
70313;SDS011;57725;47.526;18.986;2022-11-21T05:59:50;12.68;;;7.40;;
70313;SDS011;57725;47.526;18.986;2022-11-21T06:02:15;11.30;;;7.13;;
70313;SDS011;57725;47.526;18.986;2022-11-21T06:04:59;12.85;;;7.03;;
70313;SDS011;57725;47.526;18.986;2022-11-21T06:07:24;13.05;;;7.38;;
70313;SDS011;57725;47.526;18.986;2022-11-21T06:09:50;10.70;;;6.60;;
70313;SDS011;57725;47.526;18.986;2022-11-21T06:12:15;11.25;;;6.63;;
70313;SDS011;57725;47.526;18.986;2022-11-21T06:14:40;13.05;;;7.47;;
70313;SDS011;57725;47.526;18.986;2022-11-21T06:17:06;12.48;;;7.05;;
70313;SDS011;57725;47.526;18.986;2022-11-21T06:19:34;12.82;;;7.97;;
70313;SDS011;57725;47.526;18.986;2022-11-21T06:21:59;11.35;;;6.85;;
70313;SDS011;57725;47.526;18.986;2022-11-21T06:24:24;12.93;;;8.18;;
70313;SDS011;57725;47.526;18.986;2022-11-21T06:26:50;12.75;;;7.57;;
70313;SDS011;57725;47.526;18.986;2022-11-21T06:29:17;12.45;;;6.95;;
70313;SDS011;57725;47.526;18.986;2022-11-21T06:31:46;11.57;;;7.03;;
70313;SDS011;57725;47.526;18.986;2022-11-21T06:34:11;11.80;;;7.35;;
70313;SDS011;57725;47.526;18.986;2022-11-21T06:36:39;12.75;;;7.30;;
70313;SDS011;57725;47.526;18.986;2022-11-21T06:39:04;13.45;;;8.57;;
70313;SDS011;57725;47.526;18.986;2022-11-21T06:41:30;14.15;;;8.10;;
70313;SDS011;57725;47.526;18.986;2022-11-21T06:43:58;13.13;;;7.82;;
70313;SDS011;57725;47.526;18.986;2022-11-21T06:46:27;13.60;;;8.20;;
70313;SDS011;57725;47.526;18.986;2022-11-21T06:48:52;11.68;;;7.32;;
70313;SDS011;57725;47.526;18.986;2022-11-21T06:51:20;13.95;;;7.95;;
70313;SDS011;57725;47.526;18.986;2022-11-21T06:53:51;13.57;;;8.20;;
70313;SDS011;57725;47.526;18.986;2022-11-21T06:56:21;15.05;;;8.80;;
70313;SDS011;57725;47.526;18.986;2022-11-21T06:58:51;16.77;;;9.43;;
70313;SDS011;57725;47.526;18.986;2022-11-21T07:01:17;12.98;;;8.05;;
70313;SDS011;57725;47.526;18.986;2022-11-21T07:03:42;16.58;;;10.00;;
70313;SDS011;57725;47.526;18.986;2022-11-21T07:06:08;13.95;;;8.18;;
70313;SDS011;57725;47.526;18.986;2022-11-21T07:08:36;14.73;;;9.00;;
70313;SDS011;57725;47.526;18.986;2022-11-21T07:11:03;17.13;;;8.98;;
70313;SDS011;57725;47.526;18.986;2022-11-21T07:13:32;14.35;;;9.20;;
70313;SDS011;57725;47.526;18.986;2022-11-21T07:16:01;17.02;;;9.43;;
70313;SDS011;57725;47.526;18.986;2022-11-21T07:18:32;15.68;;;9.30;;
70313;SDS011;57725;47.526;18.986;2022-11-21T07:21:01;15.20;;;8.68;;
70313;SDS011;57725;47.526;18.986;2022-11-21T07:23:35;14.75;;;8.75;;
70313;SDS011;57725;47.526;18.986;2022-11-21T07:26:01;13.88;;;8.45;;
70313;SDS011;57725;47.526;18.986;2022-11-21T07:28:28;14.90;;;8.88;;
70313;SDS011;57725;47.526;18.986;2022-11-21T07:30:55;16.17;;;10.00;;
70313;SDS011;57725;47.526;18.986;2022-11-21T07:33:24;16.00;;;8.50;;
70313;SDS011;57725;47.526;18.986;2022-11-21T07:35:49;16.95;;;9.85;;
70313;SDS011;57725;47.526;18.986;2022-11-21T07:38:15;15.93;;;9.18;;
70313;SDS011;57725;47.526;18.986;2022-11-21T07:40:40;16.10;;;9.35;;
70313;SDS011;57725;47.526;18.986;2022-11-21T07:43:06;13.75;;;8.82;;
70313;SDS011;57725;47.526;18.986;2022-11-21T07:45:31;16.40;;;9.30;;
70313;SDS011;57725;47.526;18.986;2022-11-21T07:48:00;15.70;;;9.45;;
70313;SDS011;57725;47.526;18.986;2022-11-21T07:50:27;16.38;;;9.65;;
70313;SDS011;57725;47.526;18.986;2022-11-21T07:52:59;16.88;;;9.27;;
70313;SDS011;57725;47.526;18.986;2022-11-21T07:55:30;17.70;;;9.88;;
70313;SDS011;57725;47.526;18.986;2022-11-21T07:57:59;17.00;;;9.60;;
70313;SDS011;57725;47.526;18.986;2022-11-21T08:00:32;16.60;;;9.32;;
70313;SDS011;57725;47.526;18.986;2022-11-21T08:02:59;15.00;;;9.18;;
70313;SDS011;57725;47.526;18.986;2022-11-21T08:05:24;16.42;;;9.85;;
70313;SDS011;57725;47.526;18.986;2022-11-21T08:07:50;17.67;;;9.23;;
70313;SDS011;57725;47.526;18.986;2022-11-21T08:10:15;15.50;;;9.38;;
70313;SDS011;57725;47.526;18.986;2022-11-21T08:12:44;16.67;;;9.73;;
70313;SDS011;57725;47.526;18.986;2022-11-21T08:15:10;16.10;;;9.65;;
70313;SDS011;57725;47.526;18.986;2022-11-21T08:17:36;15.15;;;9.48;;
70313;SDS011;57725;47.526;18.986;2022-11-21T08:20:03;14.32;;;8.48;;
70313;SDS011;57725;47.526;18.986;2022-11-21T08:22:31;17.25;;;9.55;;
70313;SDS011;57725;47.526;18.986;2022-11-21T08:25:03;15.73;;;9.13;;
70313;SDS011;57725;47.526;18.986;2022-11-21T08:27:32;17.13;;;9.23;;
70313;SDS011;57725;47.526;18.986;2022-11-21T08:29:57;16.92;;;10.00;;
70313;SDS011;57725;47.526;18.986;2022-11-21T08:32:22;17.55;;;10.65;;
70313;SDS011;57725;47.526;18.986;2022-11-21T08:34:48;15.63;;;10.18;;
70313;SDS011;57725;47.526;18.986;2022-11-21T08:37:13;16.73;;;9.85;;
70313;SDS011;57725;47.526;18.986;2022-11-21T08:39:38;15.10;;;9.60;;
70313;SDS011;57725;47.526;18.986;2022-11-21T08:42:04;16.27;;;8.93;;
70313;SDS011;57725;47.526;18.986;2022-11-21T08:44:30;15.43;;;9.40;;
70313;SDS011;57725;47.526;18.986;2022-11-21T08:46:59;15.73;;;9.63;;
70313;SDS011;57725;47.526;18.986;2022-11-21T08:49:27;16.05;;;9.48;;
70313;SDS011;57725;47.526;18.986;2022-11-21T08:51:53;15.45;;;9.85;;
70313;SDS011;57725;47.526;18.986;2022-11-21T08:54:19;16.20;;;9.00;;
70313;SDS011;57725;47.526;18.986;2022-11-21T08:56:46;15.80;;;9.45;;
70313;SDS011;57725;47.526;18.986;2022-11-21T08:59:15;17.73;;;10.00;;
70313;SDS011;57725;47.526;18.986;2022-11-21T09:01:47;16.02;;;9.95;;
70313;SDS011;57725;47.526;18.986;2022-11-21T09:04:19;16.90;;;10.35;;
70313;SDS011;57725;47.526;18.986;2022-11-21T09:06:44;16.42;;;9.88;;
70313;SDS011;57725;47.526;18.986;2022-11-21T09:09:12;15.73;;;10.57;;
70313;SDS011;57725;47.526;18.986;2022-11-21T09:11:37;18.33;;;10.25;;
70313;SDS011;57725;47.526;18.986;2022-11-21T09:14:02;18.83;;;11.20;;
70313;SDS011;57725;47.526;18.986;2022-11-21T09:16:49;16.63;;;9.88;;
70313;SDS011;57725;47.526;18.986;2022-11-21T09:19:33;17.85;;;10.80;;
70313;SDS011;57725;47.526;18.986;2022-11-21T09:22:03;20.08;;;11.48;;
70313;SDS011;57725;47.526;18.986;2022-11-21T09:24:31;16.52;;;10.02;;
70313;SDS011;57725;47.526;18.986;2022-11-21T09:26:57;18.88;;;10.88;;
70313;SDS011;57725;47.526;18.986;2022-11-21T09:29:25;16.65;;;10.07;;
70313;SDS011;57725;47.526;18.986;2022-11-21T09:31:51;19.08;;;11.40;;
70313;SDS011;57725;47.526;18.986;2022-11-21T09:34:16;18.88;;;11.85;;
70313;SDS011;57725;47.526;18.986;2022-11-21T09:36:42;49.28;;;22.77;;
70313;SDS011;57725;47.526;18.986;2022-11-21T09:39:07;54.88;;;27.30;;
70313;SDS011;57725;47.526;18.986;2022-11-21T09:44:45;54.97;;;25.90;;
70313;SDS011;57725;47.526;18.986;2022-11-21T09:47:24;50.20;;;25.23;;
70313;SDS011;57725;47.526;18.986;2022-11-21T09:50:00;51.45;;;26.52;;
70313;SDS011;57725;47.526;18.986;2022-11-21T09:52:34;50.85;;;27.40;;
70313;SDS011;57725;47.526;18.986;2022-11-21T09:55:04;55.42;;;27.05;;
70313;SDS011;57725;47.526;18.986;2022-11-21T09:57:37;54.42;;;28.58;;
70313;SDS011;57725;47.526;18.986;2022-11-21T10:00:20;52.28;;;26.73;;
70313;SDS011;57725;47.526;18.986;2022-11-21T10:02:50;50.30;;;26.65;;
70313;SDS011;57725;47.526;18.986;2022-11-21T10:05:16;51.47;;;28.00;;
70313;SDS011;57725;47.526;18.986;2022-11-21T10:07:52;48.78;;;26.30;;
70313;SDS011;57725;47.526;18.986;2022-11-21T10:28:45;46.15;;;25.20;;
70313;SDS011;57725;47.526;18.986;2022-11-21T10:31:12;49.33;;;25.38;;
70313;SDS011;57725;47.526;18.986;2022-11-21T10:33:39;42.80;;;24.30;;
70313;SDS011;57725;47.526;18.986;2022-11-21T10:38:54;42.40;;;24.33;;
70313;SDS011;57725;47.526;18.986;2022-11-21T10:44:27;39.88;;;22.13;;
70313;SDS011;57725;47.526;18.986;2022-11-21T10:47:19;40.85;;;23.33;;
70313;SDS011;57725;47.526;18.986;2022-11-21T10:49:58;42.58;;;23.02;;
70313;SDS011;57725;47.526;18.986;2022-11-21T10:52:30;39.50;;;21.98;;
70313;SDS011;57725;47.526;18.986;2022-11-21T10:57:26;37.37;;;22.73;;
70313;SDS011;57725;47.526;18.986;2022-11-21T10:59:57;38.08;;;21.65;;
70313;SDS011;57725;47.526;18.986;2022-11-21T11:03:20;39.20;;;21.27;;
70313;SDS011;57725;47.526;18.986;2022-11-21T11:05:31;42.35;;;22.50;;
70313;SDS011;57725;47.526;18.986;2022-11-21T11:10:39;36.38;;;21.75;;
70313;SDS011;57725;47.526;18.986;2022-11-21T11:13:24;36.00;;;20.50;;
70313;SDS011;57725;47.526;18.986;2022-11-21T11:19:04;36.72;;;20.67;;
70313;SDS011;57725;47.526;18.986;2022-11-21T11:21:43;34.45;;;20.42;;
70313;SDS011;57725;47.526;18.986;2022-11-21T11:29:13;34.22;;;19.85;;
70313;SDS011;57725;47.526;18.986;2022-11-21T11:34:38;31.70;;;18.88;;
70313;SDS011;57725;47.526;18.986;2022-11-21T11:37:10;33.90;;;19.33;;
70313;SDS011;57725;47.526;18.986;2022-11-21T11:39:38;32.95;;;19.60;;
70313;SDS011;57725;47.526;18.986;2022-11-21T11:48:11;30.73;;;18.58;;
70313;SDS011;57725;47.526;18.986;2022-11-21T11:50:39;33.50;;;18.92;;
70313;SDS011;57725;47.526;18.986;2022-11-21T11:56:14;30.55;;;18.23;;
70313;SDS011;57725;47.526;18.986;2022-11-21T12:04:15;31.02;;;18.50;;
70313;SDS011;57725;47.526;18.986;2022-11-21T12:12:03;34.90;;;20.15;;
70313;SDS011;57725;47.526;18.986;2022-11-21T12:17:34;29.58;;;17.95;;
70313;SDS011;57725;47.526;18.986;2022-11-21T12:20:11;31.88;;;18.10;;
70313;SDS011;57725;47.526;18.986;2022-11-21T12:22:40;31.02;;;17.83;;
70313;SDS011;57725;47.526;18.986;2022-11-21T12:25:09;30.98;;;18.40;;
70313;SDS011;57725;47.526;18.986;2022-11-21T12:27:36;28.33;;;17.55;;
70313;SDS011;57725;47.526;18.986;2022-11-21T12:30:19;32.80;;;18.83;;
70313;SDS011;57725;47.526;18.986;2022-11-21T12:43:52;26.58;;;16.70;;
70313;SDS011;57725;47.526;18.986;2022-11-21T12:52:42;28.67;;;16.88;;
70313;SDS011;57725;47.526;18.986;2022-11-21T12:55:35;27.35;;;16.55;;
70313;SDS011;57725;47.526;18.986;2022-11-21T12:58:05;29.55;;;17.13;;
70313;SDS011;57725;47.526;18.986;2022-11-21T13:03:58;27.90;;;16.83;;
70313;SDS011;57725;47.526;18.986;2022-11-21T13:06:26;26.90;;;16.30;;
70313;SDS011;57725;47.526;18.986;2022-11-21T13:08:54;31.10;;;18.02;;
70313;SDS011;57725;47.526;18.986;2022-11-21T13:11:27;28.35;;;15.82;;
70313;SDS011;57725;47.526;18.986;2022-11-21T13:30:54;26.50;;;15.82;;
70313;SDS011;57725;47.526;18.986;2022-11-21T13:36:04;26.48;;;15.40;;
70313;SDS011;57725;47.526;18.986;2022-11-21T13:44:28;27.15;;;15.77;;
70313;SDS011;57725;47.526;18.986;2022-11-21T13:46:56;25.25;;;14.05;;
70313;SDS011;57725;47.526;18.986;2022-11-21T13:49:33;25.35;;;14.35;;
70313;SDS011;57725;47.526;18.986;2022-11-21T14:00:49;22.63;;;14.35;;
70313;SDS011;57725;47.526;18.986;2022-11-21T14:03:39;22.27;;;13.73;;
70313;SDS011;57725;47.526;18.986;2022-11-21T14:06:29;23.42;;;14.82;;
70313;SDS011;57725;47.526;18.986;2022-11-21T14:11:46;25.80;;;14.65;;
70313;SDS011;57725;47.526;18.986;2022-11-21T14:14:51;23.92;;;14.90;;
70313;SDS011;57725;47.526;18.986;2022-11-21T14:20:12;22.45;;;14.15;;
70313;SDS011;57725;47.526;18.986;2022-11-21T14:22:42;23.52;;;14.23;;
70313;SDS011;57725;47.526;18.986;2022-11-21T14:25:21;19.50;;;13.07;;
70313;SDS011;57725;47.526;18.986;2022-11-21T14:27:50;22.30;;;13.65;;
70313;SDS011;57725;47.526;18.986;2022-11-21T14:30:32;21.13;;;13.25;;
70313;SDS011;57725;47.526;18.986;2022-11-21T14:35:47;19.85;;;12.43;;
70313;SDS011;57725;47.526;18.986;2022-11-21T14:38:18;25.95;;;12.80;;
70313;SDS011;57725;47.526;18.986;2022-11-21T14:40:45;34.30;;;14.57;;
70313;SDS011;57725;47.526;18.986;2022-11-21T14:43:26;30.30;;;12.68;;
70313;SDS011;57725;47.526;18.986;2022-11-21T14:45:58;34.60;;;13.23;;
70313;SDS011;57725;47.526;18.986;2022-11-21T14:48:32;28.55;;;11.93;;
70313;SDS011;57725;47.526;18.986;2022-11-21T14:50:58;27.45;;;12.63;;
70313;SDS011;57725;47.526;18.986;2022-11-21T14:53:26;27.13;;;12.52;;
70313;SDS011;57725;47.526;18.986;2022-11-21T14:55:58;22.48;;;11.55;;
70313;SDS011;57725;47.526;18.986;2022-11-21T14:58:23;26.67;;;12.48;;
70313;SDS011;57725;47.526;18.986;2022-11-21T15:01:02;24.40;;;11.68;;
70313;SDS011;57725;47.526;18.986;2022-11-21T15:03:32;22.27;;;12.30;;
70313;SDS011;57725;47.526;18.986;2022-11-21T15:06:02;23.83;;;10.80;;
70313;SDS011;57725;47.526;18.986;2022-11-21T15:08:29;20.85;;;11.75;;
70313;SDS011;57725;47.526;18.986;2022-11-21T15:10:55;24.80;;;12.02;;
70313;SDS011;57725;47.526;18.986;2022-11-21T15:13:27;17.73;;;10.65;;
70313;SDS011;57725;47.526;18.986;2022-11-21T15:18:27;19.35;;;10.02;;
70313;SDS011;57725;47.526;18.986;2022-11-21T15:20:55;25.17;;;10.40;;
70313;SDS011;57725;47.526;18.986;2022-11-21T15:25:56;19.00;;;10.38;;
70313;SDS011;57725;47.526;18.986;2022-11-21T15:28:23;19.10;;;10.77;;
70313;SDS011;57725;47.526;18.986;2022-11-21T15:31:34;16.70;;;10.32;;
70313;SDS011;57725;47.526;18.986;2022-11-21T15:36:19;19.95;;;9.63;;
70313;SDS011;57725;47.526;18.986;2022-11-21T15:43:50;14.50;;;9.10;;
70313;SDS011;57725;47.526;18.986;2022-11-21T15:48:54;18.95;;;9.30;;
70313;SDS011;57725;47.526;18.986;2022-11-21T15:54:08;13.95;;;9.25;;
70313;SDS011;57725;47.526;18.986;2022-11-21T15:56:36;17.55;;;9.60;;
70313;SDS011;57725;47.526;18.986;2022-11-21T15:59:04;17.95;;;9.57;;
70313;SDS011;57725;47.526;18.986;2022-11-21T16:01:33;13.60;;;9.00;;
70313;SDS011;57725;47.526;18.986;2022-11-21T16:04:08;14.85;;;8.90;;
70313;SDS011;57725;47.526;18.986;2022-11-21T16:06:38;14.82;;;9.00;;
70313;SDS011;57725;47.526;18.986;2022-11-21T16:09:03;14.77;;;8.98;;
70313;SDS011;57725;47.526;18.986;2022-11-21T16:11:30;13.73;;;8.43;;
70313;SDS011;57725;47.526;18.986;2022-11-21T16:14:01;13.43;;;8.70;;
70313;SDS011;57725;47.526;18.986;2022-11-21T16:16:29;12.95;;;8.55;;
70313;SDS011;57725;47.526;18.986;2022-11-21T16:18:59;12.02;;;7.97;;
70313;SDS011;57725;47.526;18.986;2022-11-21T16:21:24;12.98;;;7.97;;
70313;SDS011;57725;47.526;18.986;2022-11-21T16:23:50;12.57;;;7.60;;
70313;SDS011;57725;47.526;18.986;2022-11-21T16:26:16;14.05;;;9.18;;
70313;SDS011;57725;47.526;18.986;2022-11-21T16:28:44;14.35;;;8.75;;
70313;SDS011;57725;47.526;18.986;2022-11-21T16:31:16;12.30;;;7.95;;
70313;SDS011;57725;47.526;18.986;2022-11-21T16:33:48;11.65;;;7.80;;
70313;SDS011;57725;47.526;18.986;2022-11-21T16:36:21;12.50;;;7.43;;
70313;SDS011;57725;47.526;18.986;2022-11-21T16:38:49;12.60;;;8.18;;
70313;SDS011;57725;47.526;18.986;2022-11-21T16:41:18;12.65;;;7.85;;
70313;SDS011;57725;47.526;18.986;2022-11-21T16:43:46;16.90;;;8.30;;
70313;SDS011;57725;47.526;18.986;2022-11-21T16:46:16;11.75;;;7.78;;
70313;SDS011;57725;47.526;18.986;2022-11-21T16:48:43;12.88;;;8.00;;
70313;SDS011;57725;47.526;18.986;2022-11-21T16:51:19;11.35;;;7.57;;
70313;SDS011;57725;47.526;18.986;2022-11-21T16:53:46;11.13;;;7.07;;
70313;SDS011;57725;47.526;18.986;2022-11-21T16:56:13;10.45;;;7.32;;
70313;SDS011;57725;47.526;18.986;2022-11-21T16:58:39;10.93;;;7.15;;
70313;SDS011;57725;47.526;18.986;2022-11-21T17:01:13;11.52;;;7.53;;
70313;SDS011;57725;47.526;18.986;2022-11-21T17:03:39;11.07;;;7.07;;
70313;SDS011;57725;47.526;18.986;2022-11-21T17:06:05;11.23;;;7.15;;